Wrenshall, MN (55797)

9:55 PM CDT on July 24, 2016 (GMT -0500)
Esko | | Change Station

Elev 1145 ft 46.68 °N, 92.34 °W | Updated 7 seconds ago

Scattered Clouds
Scattered Clouds
67.6 °F
Feels Like 67.6 °F
N
0.0
Wind Variable Wind from South
Gusts 0.0 mph

Today
High -- | Low -- °F
--% Chance of Precip.
Yesterday
High -- | Low -- °F
Precip. -- in
Pressure 29.90 in
Visibility 10.0 miles
Clouds Scattered Clouds 4900 ft
Dew Point 65 °F
Humidity 90%
Rainfall 0.02 in
Snow Depth Not available.
5:41 AM 8:49 PM
Waning Gibbous, 70% visible
METAR KCOQ 250235Z AUTO 26005KT 10SM SCT049 22/15 A2990 RMK AO2
Pressure 29.90 in
Visibility 10.0 miles
Clouds Scattered Clouds 4900 ft
Dew Point 65 °F
Humidity 90%
Rainfall 0.02 in
Snow Depth Not available.
5:41 AM 8:49 PM
Waning Gibbous, 70% visible
METAR KCOQ 250235Z AUTO 26005KT 10SM SCT049 22/15 A2990 RMK AO2

10-Day Weather Forecast

Almanac

Astronomy

Jul. 24, 2016 Rise Set
Actual Time
Civil Twilight
Nautical Twilight
Astronomical Twilight
Moon
Length of Visible Light
Length of Day
Tomorrow will be .
, % of the Moon is Illuminated

Today's Extremes

State Highs State Lows

Community

WunderPhotos

Upload Photos

1,927,246 photos uploaded!

WunderBlog® & News

Nearby

Air Quality

  Air Quality AQ Index Pollutant
Not available.

Snow Depth

Station Depth Elevation

Earthquake Activity

City Distance Mag. Time & Date
Minimum magnitude displayed is 2.5.

Coastal Water Temperatures

Place Temperature

Stations

Nearby Weather Stations

Station Location Temp. Windchill Dew Point Humidity Wind Precip. Elev Updated Type
                   

Watches & Warnings

There are currently no watches in effect.